Time;durP1;ratioP1;P1;durP2;ratioP2;P2;SDS_P1;SDS_P2;PMS_P1;PMS_P2;Temp;Humidity;BMP_temperature;BMP_pressure;BME280_temperature;BME280_humidity;BME280_pressure;Samples;Min_cycle;Max_cycle;Signal;HPM_P1;HPM_P2
2021/04/07 00:00:18;;;;;;;28.80;20.35;;;;;;;2.14;52.20;99165.59;115558;1199;103192;-82
2021/04/07 00:02:45;;;;;;;27.73;21.73;;;;;;;2.08;52.52;99163.03;115731;1199;103035;-83
2021/04/07 00:05:13;;;;;;;28.20;20.80;;;;;;;2.07;52.03;99162.18;115536;1198;103053;-82
2021/04/07 00:07:43;;;;;;;33.57;20.60;;;;;;;2.09;52.46;99160.42;115634;1199;103021;-82
2021/04/07 00:10:14;;;;;;;31.60;21.58;;;;;;;2.06;52.34;99163.06;115691;1199;103101;-82
2021/04/07 00:12:41;;;;;;;28.18;20.50;;;;;;;1.97;52.66;99158.80;115615;1199;103078;-83
2021/04/07 00:15:13;;;;;;;35.53;21.10;;;;;;;1.97;53.15;99163.16;115591;1200;103255;-81
2021/04/07 00:17:40;;;;;;;29.63;21.33;;;;;;;1.98;53.42;99165.77;115755;1198;101832;-82
2021/04/07 00:20:10;;;;;;;22.20;17.97;;;;;;;1.96;52.75;99166.67;115623;1199;102761;-82
2021/04/07 00:22:37;;;;;;;30.20;20.50;;;;;;;1.98;53.53;99164.91;115684;1198;103031;-81
2021/04/07 00:25:05;;;;;;;29.97;21.33;;;;;;;1.99;53.23;99172.77;115516;1199;103146;-82
2021/04/07 00:27:35;;;;;;;28.25;21.23;;;;;;;1.99;53.19;99164.03;115642;1199;103265;-81
2021/04/07 00:30:03;;;;;;;28.38;21.98;;;;;;;1.96;52.90;99169.30;115764;1198;102938;-81
2021/04/07 00:32:30;;;;;;;27.15;20.55;;;;;;;1.87;53.31;99172.02;115694;1200;103097;-82
2021/04/07 00:34:58;;;;;;;34.90;22.30;;;;;;;1.86;53.48;99162.43;115535;1199;103127;-82
2021/04/07 00:37:25;;;;;;;29.23;22.03;;;;;;;1.86;53.86;99165.91;115620;1200;103040;-82
2021/04/07 00:39:52;;;;;;;28.17;21.93;;;;;;;1.83;53.93;99160.70;115646;1199;103054;-82
2021/04/07 00:42:18;;;;;;;33.90;22.33;;;;;;;1.75;53.85;99155.53;115671;1199;102482;-80
2021/04/07 00:44:45;;;;;;;29.35;20.95;;;;;;;1.67;54.86;99157.38;115672;1200;103565;-81
2021/04/07 00:47:17;;;;;;;30.33;24.53;;;;;;;1.65;55.14;99156.50;115539;1199;103264;-82
2021/04/07 00:49:44;;;;;;;33.60;23.00;;;;;;;1.67;55.16;99163.48;115677;1199;102427;-81
2021/04/07 00:52:11;;;;;;;30.30;22.30;;;;;;;1.69;55.14;99160.83;115593;1199;103033;-82
2021/04/07 00:54:38;;;;;;;34.90;22.00;;;;;;;1.69;55.18;99158.20;115659;1198;103038;-83
2021/04/07 00:57:05;;;;;;;25.63;20.95;;;;;;;1.66;54.88;99155.63;115693;1199;103847;-82
2021/04/07 00:59:32;;;;;;;31.43;24.10;;;;;;;1.68;55.99;99156.50;115584;1199;103085;-82
2021/04/07 01:02:00;;;;;;;28.57;21.97;;;;;;;1.64;55.50;99153.02;115342;1199;103060;-82
2021/04/07 01:04:27;;;;;;;25.50;21.60;;;;;;;1.67;56.08;99155.61;115703;1199;103034;-82
2021/04/07 01:06:54;;;;;;;26.40;22.57;;;;;;;1.64;55.94;99160.01;115590;1199;103050;-82
2021/04/07 01:09:21;;;;;;;23.83;21.27;;;;;;;1.64;55.86;99158.27;115402;1200;103041;-82
2021/04/07 01:11:48;;;;;;;27.00;20.45;;;;;;;1.64;56.39;99166.14;115543;1199;103211;-82
2021/04/07 01:14:15;;;;;;;27.90;21.28;;;;;;;1.59;56.42;99160.06;115533;1199;103056;-81
2021/04/07 01:16:42;;;;;;;32.23;24.33;;;;;;;1.60;55.87;99156.56;115735;1198;103235;-82
2021/04/07 01:19:10;;;;;;;30.03;22.18;;;;;;;1.54;56.06;99156.62;115882;1198;103037;-82
2021/04/07 01:21:37;;;;;;;25.95;21.70;;;;;;;1.61;56.27;99162.67;115554;1199;103086;-83
2021/04/07 01:24:09;;;;;;;30.45;21.23;;;;;;;1.61;56.62;99160.05;115695;1199;103184;-83
2021/04/07 01:26:36;;;;;;;37.60;22.83;;;;;;;1.63;56.49;99164.40;115814;1198;103047;-82
2021/04/07 01:29:04;;;;;;;26.40;21.85;;;;;;;1.60;56.65;99171.42;115534;1199;103210;-82
2021/04/07 01:31:32;;;;;;;31.03;22.00;;;;;;;1.59;56.39;99178.44;115626;1199;103155;-82
2021/04/07 01:33:59;;;;;;;31.35;23.15;;;;;;;1.64;56.27;99174.02;115564;1198;103034;-82
2021/04/07 01:36:26;;;;;;;34.27;21.60;;;;;;;1.64;56.58;99165.25;115589;1200;103140;-81
2021/04/07 01:38:52;;;;;;;36.43;23.63;;;;;;;1.65;56.64;99170.52;115218;1199;103213;-81
2021/04/07 01:41:19;;;;;;;24.73;21.63;;;;;;;1.60;56.89;99176.67;115200;1199;103178;-81
2021/04/07 01:43:48;;;;;;;30.65;22.85;;;;;;;1.52;56.89;99179.39;115409;1200;103326;-82
2021/04/07 01:46:15;;;;;;;27.20;22.33;;;;;;;1.48;57.71;99175.03;115477;1199;103274;-82
2021/04/07 01:48:43;;;;;;;27.00;19.67;;;;;;;1.38;57.87;99181.27;115599;1198;103587;-82
2021/04/07 01:51:10;;;;;;;29.07;21.77;;;;;;;1.32;58.39;99182.20;115613;1199;101334;-81
2021/04/07 01:53:37;;;;;;;26.50;19.58;;;;;;;1.24;58.29;99189.23;115819;1199;103066;-82
2021/04/07 01:56:04;;;;;;;33.60;22.23;;;;;;;1.23;58.63;99182.27;115489;1199;103072;-81
2021/04/07 01:58:37;;;;;;;31.90;21.68;;;;;;;1.20;58.72;99191.03;115614;1198;103026;-82
2021/04/07 02:01:05;;;;;;;24.28;20.33;;;;;;;1.22;58.38;99188.39;115614;1199;102063;-81
2021/04/07 02:03:32;;;;;;;32.47;22.07;;;;;;;1.20;58.59;99193.66;115732;1200;101903;-81
2021/04/07 02:05:59;;;;;;;31.03;22.07;;;;;;;1.13;59.45;99200.70;115759;1200;103056;-83
2021/04/07 02:08:25;;;;;;;25.87;21.17;;;;;;;1.11;59.34;99194.58;115650;1199;103011;-81
2021/04/07 02:10:52;;;;;;;29.43;24.30;;;;;;;1.11;59.05;99199.82;115904;1199;103095;-81
2021/04/07 02:13:19;;;;;;;34.43;23.30;;;;;;;1.15;59.44;99187.57;115663;1199;103108;-82
2021/04/07 02:15:45;;;;;;;32.80;25.15;;;;;;;1.15;59.71;99203.30;115794;1198;103146;-82
2021/04/07 02:18:13;;;;;;;27.35;23.25;;;;;;;1.12;59.32;99204.19;115715;1200;102909;-82
2021/04/07 02:20:39;;;;;;;33.00;24.38;;;;;;;1.14;59.69;99198.93;115534;1199;103274;-82
2021/04/07 02:23:06;;;;;;;29.37;24.80;;;;;;;1.05;59.77;99205.09;115368;1199;103056;-81
2021/04/07 02:25:33;;;;;;;28.90;24.40;;;;;;;1.09;60.36;99205.95;115637;1199;103121;-82
2021/04/07 02:28:00;;;;;;;26.77;23.27;;;;;;;1.09;60.10;99208.58;115461;1200;103024;-81
2021/04/07 02:30:27;;;;;;;31.07;22.40;;;;;;;1.04;60.67;99205.12;115603;1199;103146;-82
2021/04/07 02:32:54;;;;;;;25.50;22.90;;;;;;;1.04;60.30;99205.12;115564;1199;101347;-83
2021/04/07 02:35:21;;;;;;;30.08;19.28;;;;;;;0.99;60.75;99210.41;115769;1199;103134;-82
2021/04/07 02:37:47;;;;;;;29.53;21.23;;;;;;;0.97;60.55;99206.91;115739;1199;103063;-81
2021/04/07 02:40:15;;;;;;;29.80;21.10;;;;;;;0.99;61.14;99210.41;115735;1200;103041;-81
2021/04/07 02:42:42;;;;;;;28.65;22.33;;;;;;;0.99;60.94;99210.41;115735;1199;103280;-82
2021/04/07 02:45:09;;;;;;;23.53;18.75;;;;;;;0.95;61.48;99208.69;115601;1199;103604;-81
2021/04/07 02:47:36;;;;;;;32.20;22.30;;;;;;;0.97;61.26;99215.66;115556;1199;103040;-82
2021/04/07 02:50:03;;;;;;;27.03;21.30;;;;;;;0.99;61.22;99218.27;115591;1199;103162;-81
2021/04/07 02:52:30;;;;;;;29.13;22.53;;;;;;;0.99;61.52;99220.89;115535;1199;104051;-79
2021/04/07 02:54:57;;;;;;;35.55;24.33;;;;;;;1.00;61.96;99220.02;115581;1199;103085;-80
2021/04/07 02:57:23;;;;;;;33.80;20.50;;;;;;;0.94;62.00;99223.52;115599;1198;103015;-80
2021/04/07 02:59:50;;;;;;;30.30;22.13;;;;;;;0.92;62.06;99222.68;115502;1199;103251;-81
2021/04/07 03:02:17;;;;;;;32.55;22.75;;;;;;;0.93;62.11;99227.02;115495;1198;103001;-81
2021/04/07 03:04:43;;;;;;;29.60;23.88;;;;;;;0.95;62.29;99219.17;115639;1200;103162;-80
2021/04/07 03:07:11;;;;;;;25.03;20.87;;;;;;;0.91;62.59;99227.94;115529;1199;103465;-81
2021/04/07 03:09:39;;;;;;;28.20;22.00;;;;;;;0.93;62.44;99228.78;115627;1197;103050;-82
2021/04/07 03:12:06;;;;;;;26.10;20.30;;;;;;;0.96;62.18;99234.00;115372;1199;103121;-80
2021/04/07 03:14:33;;;;;;;26.80;19.40;;;;;;;0.91;62.37;99228.80;115237;1198;103088;-81
2021/04/07 03:17:00;;;;;;;25.97;19.97;;;;;;;0.92;62.80;99230.55;115697;1199;103140;-81
2021/04/07 03:19:27;;;;;;;23.90;17.63;;;;;;;0.92;62.93;99230.55;115791;1199;103120;-81
2021/04/07 03:21:53;;;;;;;22.27;17.37;;;;;;;0.94;62.77;99227.91;115323;1200;103349;-80
2021/04/07 03:24:20;;;;;;;17.60;15.70;;;;;;;0.94;62.94;99231.39;115255;1199;103113;-82
2021/04/07 03:26:47;;;;;;;17.40;15.13;;;;;;;0.97;62.50;99231.39;115540;1199;103018;-82
2021/04/07 03:29:14;;;;;;;17.83;15.17;;;;;;;1.03;62.93;99235.72;115521;1199;102998;-81
2021/04/07 03:31:43;;;;;;;19.83;15.10;;;;;;;1.01;62.57;99240.09;115730;1198;103037;-81
2021/04/07 03:34:10;;;;;;;20.00;15.33;;;;;;;1.05;62.86;99247.05;115487;1199;103066;-81
2021/04/07 03:36:37;;;;;;;20.00;14.25;;;;;;;0.97;62.62;99241.88;115564;1200;103232;-80
2021/04/07 03:39:04;;;;;;;23.58;15.28;;;;;;;0.97;62.60;99244.50;115639;1199;103158;-81
2021/04/07 03:41:31;;;;;;;22.37;16.33;;;;;;;0.96;62.92;99245.38;115482;1199;103018;-81
2021/04/07 03:43:57;;;;;;;23.07;15.83;;;;;;;0.91;63.34;99241.91;115730;1199;103127;-81
2021/04/07 03:46:24;;;;;;;19.53;15.47;;;;;;;0.88;63.18;99236.69;115647;1199;103053;-82
2021/04/07 03:48:51;;;;;;;18.93;14.57;;;;;;;0.80;63.93;99255.07;115639;1197;103440;-81
2021/04/07 03:51:17;;;;;;;23.88;17.53;;;;;;;0.81;63.17;99256.82;115731;1199;103030;-82
2021/04/07 03:53:46;;;;;;;29.20;19.45;;;;;;;0.81;63.49;99254.20;115542;1199;103306;-82
2021/04/07 03:56:13;;;;;;;28.70;22.57;;;;;;;0.83;63.86;99259.43;115581;1199;103018;-81
2021/04/07 03:58:40;;;;;;;30.93;24.57;;;;;;;0.82;63.75;99266.40;115464;1199;103034;-82
2021/04/07 04:01:08;;;;;;;33.80;23.93;;;;;;;0.83;63.91;99260.29;115531;1199;103040;-82
2021/04/07 04:03:34;;;;;;;29.30;24.08;;;;;;;0.83;63.79;99268.15;115520;1199;103127;-80
2021/04/07 04:06:01;;;;;;;26.98;21.90;;;;;;;0.78;64.38;99269.06;115569;1199;103108;-82
2021/04/07 04:08:27;;;;;;;34.75;24.85;;;;;;;0.77;64.26;99272.55;115610;1199;103076;-81
2021/04/07 04:10:56;;;;;;;31.63;24.28;;;;;;;0.72;64.50;99277.83;115691;1199;103063;-81
2021/04/07 04:13:22;;;;;;;33.30;23.83;;;;;;;0.75;64.77;99279.56;115578;1198;103073;-81
2021/04/07 04:15:49;;;;;;;27.93;21.13;;;;;;;0.73;65.31;99282.17;115522;1199;103082;-82
2021/04/07 04:18:15;;;;;;;30.18;22.05;;;;;;;0.80;64.46;99278.66;115705;1199;102905;-82
2021/04/07 04:20:42;;;;;;;24.55;21.70;;;;;;;0.82;65.16;99282.13;115705;1199;103057;-81
2021/04/07 04:23:09;;;;;;;34.45;22.65;;;;;;;0.86;64.69;99285.61;115536;1198;103127;-82
2021/04/07 04:25:35;;;;;;;26.17;23.23;;;;;;;0.84;65.18;99282.15;115367;1198;103254;-81
2021/04/07 04:28:02;;;;;;;31.00;22.10;;;;;;;0.82;65.17;99286.51;115287;1199;103258;-81
2021/04/07 04:30:29;;;;;;;24.83;21.50;;;;;;;0.89;65.38;99282.97;115358;1200;103181;-81
2021/04/07 04:32:58;;;;;;;26.80;21.73;;;;;;;0.96;65.51;99296.91;115426;1199;103014;-81
2021/04/07 04:35:25;;;;;;;43.67;21.70;;;;;;;1.00;65.11;99291.66;115595;1199;103041;-82
2021/04/07 04:37:52;;;;;;;33.05;21.48;;;;;;;1.05;65.33;99294.24;115566;1200;103002;-81
2021/04/07 04:40:19;;;;;;;23.67;19.83;;;;;;;1.10;65.09;99294.23;115588;1199;103075;-81
2021/04/07 04:42:47;;;;;;;22.30;17.90;;;;;;;1.08;65.40;99296.88;115413;1199;102759;-81
2021/04/07 04:45:15;;;;;;;21.33;15.58;;;;;;;1.08;65.63;99295.98;115533;1197;103056;-81
2021/04/07 04:47:42;;;;;;;23.35;16.40;;;;;;;1.12;65.87;99290.72;115701;1200;102960;-82
2021/04/07 04:50:12;;;;;;;20.13;16.00;;;;;;;1.16;65.59;99302.08;115566;1199;103098;-81
2021/04/07 04:52:39;;;;;;;19.25;16.95;;;;;;;1.16;65.81;99295.06;115693;1199;103178;-81
2021/04/07 04:55:08;;;;;;;18.98;15.78;;;;;;;1.15;66.08;99295.08;115471;1199;103091;-82
2021/04/07 04:57:35;;;;;;;19.23;15.30;;;;;;;1.14;66.36;99296.81;115609;1199;103090;-82
2021/04/07 05:00:03;;;;;;;24.17;14.97;;;;;;;1.18;65.77;99294.19;115642;1199;103075;-82
2021/04/07 05:02:30;;;;;;;18.05;14.50;;;;;;;1.16;66.24;99289.83;115552;1199;102966;-80
2021/04/07 05:04:57;;;;;;;27.63;22.90;;;;;;;1.19;66.01;99299.42;115591;1199;103177;-81
2021/04/07 05:07:23;;;;;;;19.67;15.63;;;;;;;1.21;66.41;99300.27;115616;1199;103136;-80
2021/04/07 05:09:50;;;;;;;22.20;14.40;;;;;;;1.26;66.07;99295.88;115479;1200;103092;-81
2021/04/07 05:12:17;;;;;;;21.13;15.03;;;;;;;1.24;66.51;99296.76;115659;1199;103027;-81
2021/04/07 05:14:47;;;;;;;17.68;15.05;;;;;;;1.25;66.62;99301.98;115506;1199;103129;-82
2021/04/07 05:17:15;;;;;;;18.80;14.48;;;;;;;1.24;66.62;99302.00;115277;1199;103111;-82
2021/04/07 05:19:42;;;;;;;16.93;14.13;;;;;;;1.26;66.87;99302.88;115378;1198;103134;-81
2021/04/07 05:22:09;;;;;;;22.45;15.60;;;;;;;1.28;67.05;99307.23;115358;1199;103066;-82
2021/04/07 05:24:35;;;;;;;14.60;13.07;;;;;;;1.23;67.17;99309.02;115815;1199;102998;-81
2021/04/07 05:27:03;;;;;;;21.40;13.67;;;;;;;1.28;66.85;99314.22;115633;1198;103002;-82
2021/04/07 05:29:44;;;;;;;24.80;18.63;;;;;;;1.28;66.75;99315.11;115658;1200;103191;-81
2021/04/07 05:32:25;;;;;;;26.73;16.03;;;;;;;1.37;66.77;99308.05;115767;1202;103229;-80
2021/04/07 05:34:52;;;;;;;20.03;15.00;;;;;;;1.39;66.71;99307.16;115321;1203;103050;-82
2021/04/07 05:37:19;;;;;;;28.35;15.55;;;;;;;1.44;66.59;99315.88;115463;1201;103260;-84
2021/04/07 05:39:46;;;;;;;27.15;18.43;;;;;;;1.44;66.76;99314.98;115497;1202;103347;-82
2021/04/07 05:42:13;;;;;;;22.35;15.80;;;;;;;1.44;66.84;99321.13;115430;1200;103328;-82
2021/04/07 05:44:40;;;;;;;22.90;15.23;;;;;;;1.54;66.90;99315.81;115395;1202;101982;-84
2021/04/07 05:47:06;;;;;;;20.15;16.55;;;;;;;1.57;66.23;99321.03;115542;1202;103018;-82
2021/04/07 05:49:47;;;;;;;21.17;16.47;;;;;;;1.61;66.67;99322.75;115392;1202;103162;-82
2021/04/07 05:52:14;;;;;;;20.07;15.10;;;;;;;1.67;66.64;99322.71;115423;1202;102207;-82
2021/04/07 05:54:41;;;;;;;16.88;13.93;;;;;;;1.73;66.42;99321.78;115546;1200;103475;-82
2021/04/07 05:57:08;;;;;;;20.10;14.70;;;;;;;1.82;66.01;99324.34;115319;1200;103452;-82
2021/04/07 05:59:35;;;;;;;17.70;14.50;;;;;;;1.88;66.27;99328.66;115497;1200;103364;-82
2021/04/07 06:02:03;;;;;;;15.37;13.77;;;;;;;1.90;65.42;99324.28;115236;1203;103481;-82
2021/04/07 06:04:31;;;;;;;25.60;17.20;;;;;;;1.89;65.28;99333.89;115309;1202;103236;-83
2021/04/07 06:06:57;;;;;;;18.10;15.13;;;;;;;1.82;65.11;99329.59;115701;1203;102195;-82
2021/04/07 06:09:25;;;;;;;19.20;15.13;;;;;;;1.81;65.72;99335.72;115971;1199;103014;-82
2021/04/07 06:11:52;;;;;;;20.45;16.33;;;;;;;1.80;66.36;99331.34;115740;1198;103155;-81
2021/04/07 06:14:19;;;;;;;18.33;15.07;;;;;;;1.82;65.57;99340.09;115640;1199;103184;-82
2021/04/07 06:17:01;;;;;;;19.57;16.43;;;;;;;1.83;65.64;99333.97;115620;1200;103356;-82
2021/04/07 06:19:43;;;;;;;16.38;14.40;;;;;;;1.91;65.51;99336.53;115445;1197;103290;-81
2021/04/07 06:22:24;;;;;;;19.20;14.50;;;;;;;1.98;65.39;99343.47;115514;1201;103088;-81
2021/04/07 06:24:51;;;;;;;20.17;14.77;;;;;;;1.91;66.00;99336.53;115398;1200;103133;-82
2021/04/07 06:27:17;;;;;;;21.00;16.55;;;;;;;1.95;65.29;99348.75;115307;1200;103117;-82
2021/04/07 06:29:44;;;;;;;17.65;15.00;;;;;;;1.97;65.58;99349.59;115264;1200;103185;-82
2021/04/07 06:32:11;;;;;;;15.00;13.40;;;;;;;1.88;65.19;99345.30;115607;1200;103079;-82
2021/04/07 06:34:38;;;;;;;16.40;13.25;;;;;;;1.88;65.28;99353.18;115347;1200;103191;-80
2021/04/07 06:37:08;;;;;;;14.80;13.30;;;;;;;1.80;64.99;99358.48;115341;1202;103187;-82
2021/04/07 06:39:34;;;;;;;14.43;12.73;;;;;;;1.80;65.59;99360.22;115512;1200;103658;-81
2021/04/07 06:42:01;;;;;;;14.65;12.95;;;;;;;1.72;65.58;99365.55;115408;1202;103206;-82
2021/04/07 06:44:28;;;;;;;14.33;12.93;;;;;;;1.72;66.01;99368.17;115310;1200;103309;-82
2021/04/07 06:46:55;;;;;;;16.10;12.70;;;;;;;1.68;66.00;99374.33;115494;1197;103120;-82
2021/04/07 06:49:40;;;;;;;17.70;12.83;;;;;;;1.62;66.80;99369.97;115387;1200;103075;-82
2021/04/07 06:52:13;;;;;;;16.25;13.95;;;;;;;1.65;66.38;99369.97;115468;1200;103477;-81
2021/04/07 06:54:40;;;;;;;15.75;12.10;;;;;;;1.66;66.20;99379.56;115427;1199;103187;-82
2021/04/07 06:57:08;;;;;;;15.75;14.05;;;;;;;1.73;66.41;99371.66;115512;1200;103085;-81
2021/04/07 06:59:37;;;;;;;18.20;14.70;;;;;;;1.76;66.25;99377.77;115470;1198;103089;-81
2021/04/07 07:02:04;;;;;;;21.10;15.15;;;;;;;1.78;66.07;99385.63;115455;1199;103049;-82
2021/04/07 07:04:34;;;;;;;15.40;13.93;;;;;;;1.77;65.72;99394.38;115743;1198;104847;-84
2021/04/07 07:07:02;;;;;;;17.07;15.27;;;;;;;1.75;66.42;99398.78;115936;1198;103358;-83
2021/04/07 07:09:29;;;;;;;15.60;14.00;;;;;;;1.82;66.06;99393.45;115687;1198;103161;-81
2021/04/07 07:11:56;;;;;;;14.55;12.48;;;;;;;1.83;65.65;99400.45;115718;1199;103251;-85
2021/04/07 07:14:25;;;;;;;14.10;12.80;;;;;;;1.77;65.93;99403.14;115461;1199;102015;-81
2021/04/07 07:16:53;;;;;;;16.70;14.23;;;;;;;1.75;65.58;99407.52;115754;1199;103152;-82
2021/04/07 07:19:27;;;;;;;14.23;11.40;;;;;;;1.77;65.84;99397.89;115652;1199;102262;-82
2021/04/07 07:21:56;;;;;;;13.08;11.48;;;;;;;1.75;65.81;99406.66;115805;1199;103123;-81
2021/04/07 07:24:34;;;;;;;11.67;10.53;;;;;;;1.67;66.18;99418.05;115863;1197;103081;-81
2021/04/07 07:27:06;;;;;;;15.85;11.70;;;;;;;1.74;66.02;99418.89;115535;1199;103258;-81
2021/04/07 07:29:34;;;;;;;14.15;11.33;;;;;;;1.76;65.63;99419.77;115533;1199;103297;-82
2021/04/07 07:32:11;;;;;;;12.07;10.07;;;;;;;1.86;65.85;99423.19;115833;1199;103011;-82
2021/04/07 07:34:37;;;;;;;10.77;9.87;;;;;;;1.91;65.01;99416.16;115847;1199;103092;-82
2021/04/07 07:37:05;;;;;;;12.73;11.23;;;;;;;1.98;65.39;99420.47;115363;1200;103561;-83
2021/04/07 07:39:33;;;;;;;16.53;13.45;;;;;;;2.11;64.95;99415.15;115428;1199;103011;-83
2021/04/07 07:42:03;;;;;;;12.13;10.70;;;;;;;2.06;64.47;99420.42;115600;1197;103149;-82
2021/04/07 07:44:33;;;;;;;12.20;10.15;;;;;;;2.05;65.22;99421.30;115696;1200;103172;-82
2021/04/07 07:47:03;;;;;;;11.73;10.53;;;;;;;2.08;64.79;99429.17;115726;1199;103011;-81
2021/04/07 07:49:30;;;;;;;13.30;9.80;;;;;;;2.03;64.54;99425.70;115777;1199;102958;-83
2021/04/07 07:51:57;;;;;;;13.48;12.18;;;;;;;2.06;64.27;99428.30;115715;1199;103184;-82
2021/04/07 07:54:25;;;;;;;14.50;11.85;;;;;;;2.08;64.35;99438.79;115821;1198;103115;-82
2021/04/07 07:56:53;;;;;;;11.80;10.63;;;;;;;2.14;64.82;99429.11;115500;1199;103049;-83
2021/04/07 07:59:39;;;;;;;22.15;16.55;;;;;;;2.26;65.07;99432.53;115564;1200;103108;-83
2021/04/07 08:02:20;;;;;;;12.08;10.85;;;;;;;2.37;64.25;99433.30;115830;1199;102992;-83
2021/04/07 08:04:48;;;;;;;11.65;9.98;;;;;;;2.34;63.09;99444.70;115525;1198;103053;-81
2021/04/07 08:07:29;;;;;;;16.13;12.93;;;;;;;2.28;63.53;99433.38;115751;1199;103159;-82
2021/04/07 08:09:56;;;;;;;16.10;14.55;;;;;;;2.35;63.92;99437.72;115726;1199;103104;-81
2021/04/07 08:12:23;;;;;;;13.90;12.45;;;;;;;2.45;63.78;99441.13;115681;1200;103206;-81
2021/04/07 08:14:50;;;;;;;11.33;10.17;;;;;;;2.43;63.08;99445.54;115581;1199;103115;-82
2021/04/07 08:17:17;;;;;;;12.27;10.30;;;;;;;2.46;63.08;99448.98;115694;1200;103127;-81
2021/04/07 08:19:45;;;;;;;14.55;10.55;;;;;;;2.48;63.10;99447.23;115734;1199;103094;-82
2021/04/07 08:22:12;;;;;;;13.90;12.48;;;;;;;2.60;63.30;99451.52;115617;1200;103172;-82
2021/04/07 08:24:40;;;;;;;10.28;9.10;;;;;;;2.67;62.75;99447.07;115526;1200;103190;-82
2021/04/07 08:27:08;;;;;;;14.63;11.87;;;;;;;2.73;62.64;99449.62;115735;1199;103072;-82
2021/04/07 08:29:37;;;;;;;14.00;10.67;;;;;;;2.82;61.92;99452.16;115606;1199;101701;-82
2021/04/07 08:32:05;;;;;;;16.60;11.10;;;;;;;2.86;62.20;99439.00;115554;1199;103470;-82
2021/04/07 08:34:32;;;;;;;13.08;11.38;;;;;;;2.87;62.15;99446.02;115838;1199;103085;-82
2021/04/07 08:36:59;;;;;;;30.25;22.43;;;;;;;2.95;62.03;99452.05;115614;1199;103140;-83
2021/04/07 08:39:26;;;;;;;25.40;16.13;;;;;;;3.03;61.15;99449.34;115377;1198;103156;-82
2021/04/07 08:41:53;;;;;;;10.73;9.70;;;;;;;3.11;60.75;99456.25;115525;1200;103078;-82
2021/04/07 08:44:20;;;;;;;21.97;13.17;;;;;;;3.21;60.55;99457.00;115463;1199;103252;-81
2021/04/07 08:46:53;;;;;;;14.30;12.03;;;;;;;3.24;59.80;99453.47;115499;1199;103165;-83
2021/04/07 08:49:40;;;;;;;19.23;13.70;;;;;;;3.23;59.69;99459.64;115561;1198;103043;-83
2021/04/07 08:52:22;;;;;;;16.85;13.05;;;;;;;3.24;60.88;99454.36;115676;1199;103037;-83
2021/04/07 08:54:51;;;;;;;19.23;12.83;;;;;;;3.15;60.55;99455.32;115621;1199;103145;-82
2021/04/07 08:57:27;;;;;;;10.85;9.75;;;;;;;3.13;61.17;99469.38;115669;1199;103107;-83
2021/04/07 09:00:00;;;;;;;14.23;12.80;;;;;;;3.09;60.83;99459.78;115978;1199;103024;-82
2021/04/07 09:02:27;;;;;;;11.95;9.78;;;;;;;3.10;60.97;99467.66;115847;1199;103089;-83
2021/04/07 09:05:06;;;;;;;13.23;10.07;;;;;;;3.16;60.85;99469.37;115580;1199;103153;-83
2021/04/07 09:07:40;;;;;;;17.10;11.45;;;;;;;3.16;61.20;99466.73;115391;1199;103220;-83
2021/04/07 09:10:13;;;;;;;10.73;9.63;;;;;;;3.26;60.29;99459.59;115605;1200;103004;-82
2021/04/07 09:12:50;;;;;;;13.25;10.50;;;;;;;3.78;59.85;99461.55;115475;1199;103021;-82
2021/04/07 09:15:25;;;;;;;9.97;9.03;;;;;;;3.92;58.46;99456.11;115876;1199;103214;-81
2021/04/07 09:17:53;;;;;;;12.03;9.70;;;;;;;3.93;58.51;99463.13;115870;1198;102929;-82
2021/04/07 09:20:35;;;;;;;10.13;9.20;;;;;;;3.91;58.26;99466.67;115754;1199;102126;-81
2021/04/07 09:23:07;;;;;;;9.78;8.80;;;;;;;3.99;58.25;99465.65;115823;1200;102088;-82
2021/04/07 09:25:36;;;;;;;10.10;9.20;;;;;;;4.05;58.16;99464.67;115757;1199;102914;-83
2021/04/07 09:28:06;;;;;;;12.23;10.55;;;;;;;4.13;57.55;99468.09;115779;1199;102137;-82
2021/04/07 09:30:46;;;;;;;14.00;12.38;;;;;;;4.18;57.58;99461.00;115570;1199;103079;-83
2021/04/07 09:33:19;;;;;;;13.43;9.90;;;;;;;4.27;57.88;99464.38;115882;1199;103153;-83
2021/04/07 09:35:59;;;;;;;13.43;10.73;;;;;;;4.29;56.26;99455.55;115626;1200;101582;-83
2021/04/07 09:38:28;;;;;;;14.60;12.80;;;;;;;4.27;57.36;99459.11;115625;1199;103503;-81
2021/04/07 09:41:12;;;;;;;12.15;10.90;;;;;;;5.03;55.66;99458.66;115447;1199;103118;-82
2021/04/07 09:43:41;;;;;;;10.55;9.45;;;;;;;6.34;50.52;99452.36;115794;1199;102459;-83
2021/04/07 09:46:07;;;;;;;10.77;7.77;;;;;;;7.10;48.10;99451.28;115503;1200;103085;-82
2021/04/07 09:48:43;;;;;;;9.93;8.87;;;;;;;6.75;48.77;99447.81;115548;1199;103043;-81
2021/04/07 09:51:18;;;;;;;15.37;10.40;;;;;;;6.34;49.89;99453.25;115596;1200;103286;-82
2021/04/07 09:54:21;;;;;;;11.80;9.33;;;;;;;6.03;50.65;99451.31;115664;1200;102457;-83
2021/04/07 09:56:55;;;;;;;11.83;8.10;;;;;;;5.99;51.09;99456.72;115528;1200;103062;-81
2021/04/07 09:59:40;;;;;;;11.87;9.47;;;;;;;5.84;51.60;99456.13;115439;1200;103884;-82
2021/04/07 10:02:09;;;;;;;11.43;10.17;;;;;;;5.67;51.51;99459.13;115552;1200;101697;-83
2021/04/07 10:04:46;;;;;;;10.70;8.23;;;;;;;5.90;52.62;99454.25;115313;1200;103223;-82
2021/04/07 10:07:16;;;;;;;9.13;8.23;;;;;;;5.93;51.43;99462.98;115564;1200;103288;-83
2021/04/07 10:09:53;;;;;;;10.23;8.13;;;;;;;7.35;48.11;99447.97;115486;1198;103018;-83
2021/04/07 10:12:22;;;;;;;8.27;7.57;;;;;;;9.53;44.14;99446.20;115593;1199;103015;-83
2021/04/07 10:14:57;;;;;;;7.70;6.90;;;;;;;11.04;38.87;99436.59;115507;1198;103044;-84
2021/04/07 10:17:29;;;;;;;7.03;6.18;;;;;;;12.46;35.09;99437.16;115684;1199;103063;-84
2021/04/07 10:19:57;;;;;;;7.60;6.50;;;;;;;11.54;36.64;99446.79;115474;1199;103053;-83
2021/04/07 10:22:29;;;;;;;6.93;6.23;;;;;;;10.64;38.68;99446.30;115815;1199;103529;-83
2021/04/07 10:25:04;;;;;;;8.00;7.20;;;;;;;10.01;39.33;99453.20;115605;1199;103091;-84
2021/04/07 10:27:31;;;;;;;11.30;8.93;;;;;;;9.26;41.14;99456.89;115453;1199;103041;-83
2021/04/07 10:30:10;;;;;;;9.63;6.70;;;;;;;8.73;42.11;99456.98;115717;1199;103088;-83
2021/04/07 10:32:49;;;;;;;7.30;6.60;;;;;;;8.15;43.31;99468.56;115391;1199;103130;-84
2021/04/07 10:35:25;;;;;;;9.18;7.40;;;;;;;7.75;44.56;99467.14;115586;1199;103086;-83
2021/04/07 10:38:04;;;;;;;8.07;6.67;;;;;;;8.89;43.26;99463.53;115568;1199;103506;-84
2021/04/07 10:40:58;;;;;;;7.50;6.70;;;;;;;9.20;41.01;99468.61;115748;1199;103337;-85
2021/04/07 10:43:39;;;;;;;5.95;5.20;;;;;;;8.96;40.35;99457.07;115649;1198;103024;-83
2021/04/07 10:46:08;;;;;;;7.70;5.88;;;;;;;8.87;40.24;99466.20;115657;1199;101779;-83
2021/04/07 10:48:37;;;;;;;7.58;6.73;;;;;;;8.31;41.43;99468.95;115827;1199;101245;-82
2021/04/07 10:51:05;;;;;;;10.43;6.93;;;;;;;7.91;42.59;99476.35;115615;1199;103030;-83
2021/04/07 10:53:38;;;;;;;8.75;7.25;;;;;;;7.60;43.28;99481.72;115667;1199;103227;-81
2021/04/07 10:56:27;;;;;;;12.38;9.38;;;;;;;7.30;43.96;99479.00;115619;1199;103421;-82
2021/04/07 10:59:05;;;;;;;9.37;6.43;;;;;;;7.09;43.64;99478.70;115810;1198;103188;-82
2021/04/07 11:01:34;;;;;;;9.80;7.60;;;;;;;7.07;43.89;99471.70;115641;1199;103139;-83
2021/04/07 11:04:18;;;;;;;12.57;9.60;;;;;;;6.93;44.99;99470.30;115645;1199;103190;-83
2021/04/07 11:06:49;;;;;;;9.70;7.13;;;;;;;6.72;44.66;99482.30;115424;1199;101572;-83
2021/04/07 11:09:16;;;;;;;8.23;7.53;;;;;;;6.38;46.13;99493.70;115617;1199;103255;-82
2021/04/07 11:11:44;;;;;;;11.13;8.15;;;;;;;6.08;47.78;99501.45;115639;1199;103158;-82
2021/04/07 11:14:11;;;;;;;9.47;8.53;;;;;;;5.80;50.86;99502.02;115611;1199;103072;-83
2021/04/07 11:16:38;;;;;;;15.30;8.95;;;;;;;5.70;52.00;99500.45;115633;1199;101890;-82
2021/04/07 11:19:17;;;;;;;9.70;8.80;;;;;;;5.61;52.72;99498.89;115659;1198;103238;-82
2021/04/07 11:21:45;;;;;;;14.35;9.58;;;;;;;5.49;53.17;99485.92;115851;1199;103005;-84